createdAt,value
2022-10-26T00:01:55.985Z,97.80
2022-10-26T00:04:25.594Z,98.20
2022-10-26T00:06:55.058Z,98.30
2022-10-26T00:09:24.728Z,98.30
2022-10-26T00:11:55.372Z,98.30
2022-10-26T00:14:25.272Z,98.30
2022-10-26T00:16:54.829Z,98.20
2022-10-26T00:19:24.478Z,98.20
2022-10-26T00:21:55.040Z,98.10
2022-10-26T00:24:24.622Z,98.10
2022-10-26T00:26:55.007Z,98.00
2022-10-26T00:29:24.881Z,97.80
2022-10-26T00:31:54.718Z,97.70
2022-10-26T00:34:24.905Z,97.60
2022-10-26T00:36:54.839Z,97.60
2022-10-26T00:39:24.722Z,97.50
2022-10-26T00:41:54.565Z,97.40
2022-10-26T00:45:03.654Z,97.30
2022-10-26T00:47:56.045Z,97.20
2022-10-26T00:50:32.910Z,97.10
2022-10-26T00:53:05.409Z,97.00
2022-10-26T00:55:39.210Z,96.90
2022-10-26T00:58:11.125Z,96.70
2022-10-26T01:00:42.904Z,96.50
2022-10-26T01:03:13.913Z,96.50
2022-10-26T01:05:46.504Z,96.40
2022-10-26T01:08:18.139Z,96.30
2022-10-26T01:10:48.737Z,96.30
2022-10-26T01:13:19.879Z,96.20
2022-10-26T01:16:19.464Z,96.20
2022-10-26T01:19:09.257Z,96.10
2022-10-26T01:22:11.092Z,96.10
2022-10-26T01:25:19.920Z,96.00
2022-10-26T01:27:53.250Z,95.90
2022-10-26T01:30:54.367Z,95.90
2022-10-26T01:33:53.414Z,95.90
2022-10-26T01:36:43.941Z,95.80
2022-10-26T01:39:27.096Z,95.70
2022-10-26T01:42:05.099Z,95.60
2022-10-26T01:44:49.244Z,95.60
2022-10-26T01:47:20.551Z,95.40
2022-10-26T01:49:57.310Z,95.40
2022-10-26T01:52:27.291Z,95.30
2022-10-26T01:55:07.131Z,95.30
2022-10-26T01:57:40.174Z,95.30
2022-10-26T02:00:15.413Z,95.30
2022-10-26T02:03:03.944Z,95.20
2022-10-26T02:05:57.980Z,95.00
2022-10-26T02:09:06.635Z,94.90
2022-10-26T02:11:48.329Z,94.80
2022-10-26T02:14:57.061Z,94.70
2022-10-26T02:17:34.123Z,94.70
2022-10-26T02:20:11.126Z,94.50
2022-10-26T02:22:52.933Z,94.30
2022-10-26T02:25:33.509Z,94.20
2022-10-26T02:28:08.284Z,94.10
2022-10-26T02:30:40.197Z,94.00
2022-10-26T02:33:12.818Z,93.90
2022-10-26T02:35:45.424Z,93.70
2022-10-26T02:38:16.544Z,93.70
2022-10-26T02:40:47.281Z,93.50
2022-10-26T02:43:23.603Z,93.50
2022-10-26T02:45:58.245Z,93.50
2022-10-26T02:48:27.986Z,93.40
2022-10-26T02:51:32.773Z,93.40
2022-10-26T02:54:31.615Z,93.40
2022-10-26T02:57:17.990Z,93.10
2022-10-26T02:59:50.458Z,93.10
2022-10-26T03:02:21.437Z,93.10
2022-10-26T03:04:52.852Z,92.90
2022-10-26T03:07:28.589Z,92.90
2022-10-26T03:09:58.124Z,92.80
2022-10-26T03:12:27.654Z,92.70
2022-10-26T03:14:57.172Z,92.60
2022-10-26T03:17:26.733Z,92.60
2022-10-26T03:19:57.845Z,92.60
2022-10-26T03:22:31.360Z,92.60
2022-10-26T03:25:02.309Z,92.60
2022-10-26T03:27:32.451Z,92.60
2022-10-26T03:30:02.331Z,92.50
2022-10-26T03:32:32.221Z,92.40
2022-10-26T03:35:02.124Z,92.40
2022-10-26T03:37:32.013Z,92.30
2022-10-26T03:40:01.844Z,92.30
2022-10-26T03:42:35.351Z,92.20
2022-10-26T03:45:05.790Z,92.00
2022-10-26T03:47:36.050Z,91.60
2022-10-26T03:52:35.685Z,91.40
2022-10-26T03:55:05.699Z,91.10
2022-10-26T03:57:35.599Z,91.20
2022-10-26T04:00:05.632Z,90.90
2022-10-26T04:02:35.425Z,90.60
2022-10-26T04:05:05.703Z,90.50
2022-10-26T04:07:35.656Z,90.40
2022-10-26T04:10:06.251Z,90.20
2022-10-26T04:12:40.159Z,90.10
2022-10-26T04:15:10.542Z,90.20
2022-10-26T04:17:40.349Z,90.10
2022-10-26T04:20:11.244Z,90.10
2022-10-26T04:22:41.492Z,89.80
2022-10-26T04:25:13.013Z,89.70
2022-10-26T04:27:43.117Z,89.70
2022-10-26T04:30:13.691Z,89.40
2022-10-26T04:32:43.476Z,89.20
2022-10-26T04:35:15.377Z,89.20
2022-10-26T04:37:45.480Z,89.10
2022-10-26T04:40:16.361Z,89.20
2022-10-26T04:42:48.190Z,89.00
2022-10-26T04:45:18.886Z,88.80
2022-10-26T04:47:48.778Z,88.10
2022-10-26T04:50:18.609Z,88.00
2022-10-26T04:52:53.559Z,87.80
2022-10-26T04:55:23.409Z,87.70
2022-10-26T04:57:55.881Z,87.60
2022-10-26T05:00:28.890Z,87.20
2022-10-26T05:03:03.204Z,86.90
2022-10-26T05:05:34.774Z,87.00
2022-10-26T05:08:04.725Z,86.90
2022-10-26T05:10:34.749Z,86.60
2022-10-26T05:13:04.965Z,86.50
2022-10-26T05:15:34.904Z,85.90
2022-10-26T05:18:07.277Z,86.10
2022-10-26T05:20:38.654Z,86.00
2022-10-26T05:23:12.160Z,86.00
2022-10-26T05:25:42.653Z,86.00
2022-10-26T05:28:15.011Z,86.00
2022-10-26T05:30:46.773Z,86.10
2022-10-26T05:33:17.494Z,86.30
2022-10-26T05:35:47.418Z,86.40
2022-10-26T05:38:19.290Z,86.50
2022-10-26T05:40:56.520Z,86.70
2022-10-26T05:43:27.214Z,87.00
2022-10-26T05:45:57.333Z,87.00
2022-10-26T05:48:27.194Z,86.90
2022-10-26T05:51:00.755Z,86.70
2022-10-26T05:53:31.047Z,86.70
2022-10-26T05:56:01.373Z,86.40
2022-10-26T05:58:31.468Z,86.20
2022-10-26T06:01:22.408Z,86.10
2022-10-26T06:04:20.371Z,86.00
2022-10-26T06:06:55.472Z,85.50
2022-10-26T06:09:25.653Z,84.60
2022-10-26T06:11:55.855Z,84.40
2022-10-26T06:14:26.102Z,84.40
2022-10-26T06:17:21.164Z,84.10
2022-10-26T06:20:30.606Z,83.60
2022-10-26T06:23:29.977Z,83.60
2022-10-26T06:26:39.211Z,83.40
2022-10-26T06:29:39.746Z,82.80
2022-10-26T06:32:12.050Z,82.90
2022-10-26T06:34:48.050Z,83.40
2022-10-26T06:37:18.417Z,82.90
2022-10-26T06:39:54.049Z,82.90
2022-10-26T06:42:24.692Z,83.00
2022-10-26T06:44:54.428Z,83.00
2022-10-26T06:47:36.190Z,82.90
2022-10-26T06:50:32.144Z,82.30
2022-10-26T06:53:18.397Z,82.20
2022-10-26T06:55:51.503Z,82.10
2022-10-26T06:58:23.813Z,81.70
2022-10-26T07:00:56.373Z,81.60
2022-10-26T07:03:26.029Z,81.50
2022-10-26T07:05:55.997Z,81.70
2022-10-26T07:08:26.022Z,81.70
2022-10-26T07:10:55.534Z,81.80
2022-10-26T07:13:25.028Z,81.90
2022-10-26T07:15:54.566Z,82.10
2022-10-26T07:18:25.704Z,82.20
2022-10-26T07:20:55.193Z,82.20
2022-10-26T07:23:25.374Z,82.00
2022-10-26T07:25:56.788Z,82.10
2022-10-26T07:28:26.894Z,82.00
2022-10-26T07:30:56.443Z,82.00
2022-10-26T07:33:25.929Z,81.70
2022-10-26T07:35:57.024Z,81.80
2022-10-26T07:38:26.578Z,81.80
2022-10-26T07:40:56.829Z,81.60
2022-10-26T07:43:26.389Z,81.70
2022-10-26T07:45:55.874Z,81.50
2022-10-26T07:48:25.471Z,81.70
2022-10-26T07:50:55.047Z,81.90
2022-10-26T07:53:27.908Z,82.10
2022-10-26T07:55:59.061Z,82.20
2022-10-26T07:58:28.942Z,82.40
2022-10-26T08:00:58.931Z,82.50
2022-10-26T08:03:28.434Z,82.80
2022-10-26T08:05:57.923Z,82.90
2022-10-26T08:08:27.541Z,82.70
2022-10-26T08:10:57.103Z,82.70
2022-10-26T08:13:26.969Z,82.60
2022-10-26T08:16:04.545Z,82.40
2022-10-26T08:18:34.328Z,82.20
2022-10-26T08:21:11.119Z,82.40
2022-10-26T08:23:41.696Z,82.50
2022-10-26T08:26:13.227Z,82.60
2022-10-26T08:28:44.215Z,83.00
2022-10-26T08:31:15.739Z,83.00
2022-10-26T08:33:45.398Z,83.20
2022-10-26T08:36:16.279Z,83.20
2022-10-26T08:38:45.842Z,83.50
2022-10-26T08:41:16.205Z,83.50
2022-10-26T08:43:54.265Z,83.70
2022-10-26T08:46:34.339Z,83.80
2022-10-26T08:49:26.436Z,83.70
2022-10-26T08:52:01.796Z,83.60
2022-10-26T08:54:42.834Z,83.40
2022-10-26T08:57:18.922Z,83.20
2022-10-26T09:00:09.553Z,83.10
2022-10-26T09:02:39.160Z,82.60
2022-10-26T09:05:18.309Z,82.60
2022-10-26T09:08:14.758Z,82.70
2022-10-26T09:11:07.617Z,82.50
2022-10-26T09:14:16.308Z,82.70
2022-10-26T09:17:04.330Z,82.70
2022-10-26T09:20:00.951Z,82.70
2022-10-26T09:22:57.655Z,82.50
2022-10-26T09:25:35.848Z,82.70
2022-10-26T09:28:06.674Z,82.70
2022-10-26T09:30:40.112Z,82.70
2022-10-26T09:33:20.963Z,83.00
2022-10-26T09:36:03.535Z,83.10
2022-10-26T09:38:45.609Z,83.20
2022-10-26T09:41:44.171Z,83.40
2022-10-26T09:44:42.853Z,83.50
2022-10-26T09:47:37.112Z,83.70
2022-10-26T09:50:28.165Z,84.00
2022-10-26T09:52:57.738Z,84.40
2022-10-26T09:55:29.111Z,84.60
2022-10-26T09:58:03.539Z,84.70
2022-10-26T10:03:05.419Z,85.00
2022-10-26T10:05:50.874Z,85.00
2022-10-26T10:08:29.352Z,85.10
2022-10-26T10:11:03.752Z,85.20
2022-10-26T10:13:42.574Z,85.10
2022-10-26T10:16:31.934Z,85.10
2022-10-26T10:19:03.478Z,85.10
2022-10-26T10:21:53.606Z,85.10
2022-10-26T10:24:36.028Z,85.10
2022-10-26T10:27:18.953Z,85.20
2022-10-26T10:29:54.009Z,85.20
2022-10-26T10:32:36.995Z,85.20
2022-10-26T10:35:26.741Z,85.30
2022-10-26T10:37:56.733Z,85.30
2022-10-26T10:40:33.974Z,85.30
2022-10-26T10:43:17.693Z,85.50
2022-10-26T10:45:54.752Z,85.50
2022-10-26T10:48:31.755Z,85.70
2022-10-26T10:51:13.980Z,85.90
2022-10-26T10:53:53.873Z,86.20
2022-10-26T10:56:52.971Z,86.40
2022-10-26T10:59:43.836Z,86.60
2022-10-26T11:02:52.512Z,86.60
2022-10-26T11:05:47.221Z,86.70
2022-10-26T11:08:40.052Z,86.90
2022-10-26T11:11:22.618Z,87.00
2022-10-26T11:14:18.060Z,87.10
2022-10-26T11:17:02.447Z,87.10
2022-10-26T11:19:44.593Z,87.10
2022-10-26T11:22:19.428Z,87.20
2022-10-26T11:25:07.899Z,87.20
2022-10-26T11:27:49.412Z,87.50
2022-10-26T11:30:27.333Z,87.50
2022-10-26T11:33:20.451Z,87.70
2022-10-26T11:36:00.324Z,87.70
2022-10-26T11:39:06.378Z,87.80
2022-10-26T11:42:02.851Z,88.10
2022-10-26T11:44:41.362Z,88.20
2022-10-26T11:47:31.253Z,88.40
2022-10-26T11:50:17.111Z,88.60
2022-10-26T11:53:01.567Z,88.60
2022-10-26T11:55:31.929Z,88.70
2022-10-26T11:58:02.032Z,88.70
2022-10-26T12:00:33.213Z,88.70
2022-10-26T12:03:13.029Z,88.90
2022-10-26T12:05:51.886Z,88.90
2022-10-26T12:08:34.991Z,89.00
2022-10-26T12:11:29.312Z,89.10
2022-10-26T12:14:33.173Z,89.30
2022-10-26T12:17:31.215Z,89.40
2022-10-26T12:20:30.233Z,89.40
2022-10-26T12:22:59.941Z,89.40
2022-10-26T12:25:29.721Z,89.50
2022-10-26T12:28:02.052Z,89.50
2022-10-26T12:30:34.764Z,89.50
2022-10-26T12:33:25.149Z,89.60
2022-10-26T12:35:54.729Z,89.60
2022-10-26T12:38:59.627Z,89.70
2022-10-26T12:41:29.932Z,89.80
2022-10-26T12:44:02.826Z,89.80
2022-10-26T12:46:42.400Z,90.00
2022-10-26T12:49:51.085Z,90.10
2022-10-26T12:52:23.454Z,90.30
2022-10-26T12:55:22.734Z,90.50
2022-10-26T12:58:15.468Z,90.60
2022-10-26T13:01:24.503Z,90.80
2022-10-26T13:04:33.237Z,90.90
2022-10-26T13:07:23.390Z,90.90
2022-10-26T13:10:22.281Z,91.00
2022-10-26T13:12:58.446Z,91.10
2022-10-26T13:15:57.713Z,91.10
2022-10-26T13:18:27.707Z,91.20
2022-10-26T13:21:20.873Z,91.20
2022-10-26T13:24:03.146Z,91.30
2022-10-26T13:26:34.527Z,91.40
2022-10-26T13:29:05.533Z,91.40
2022-10-26T13:31:55.572Z,91.50
2022-10-26T13:34:29.720Z,91.60
2022-10-26T13:37:24.755Z,91.60
2022-10-26T13:39:57.578Z,91.80
2022-10-26T13:42:42.003Z,91.70
2022-10-26T13:45:22.655Z,91.80
2022-10-26T13:48:18.501Z,91.90
2022-10-26T13:50:53.395Z,92.00
2022-10-26T13:53:41.330Z,92.00
2022-10-26T13:56:34.163Z,92.00
2022-10-26T13:59:07.900Z,92.10
2022-10-26T14:01:37.896Z,92.00
2022-10-26T14:04:30.524Z,92.10
2022-10-26T14:07:00.117Z,92.10
2022-10-26T14:09:32.758Z,92.10
2022-10-26T14:12:03.917Z,92.10
2022-10-26T14:14:38.168Z,92.10
2022-10-26T14:17:08.374Z,92.10
2022-10-26T14:19:41.409Z,92.20
2022-10-26T14:22:22.892Z,92.60
2022-10-26T14:24:57.392Z,92.30
2022-10-26T14:27:40.010Z,92.30
2022-10-26T14:30:29.389Z,92.40
2022-10-26T14:33:00.050Z,92.50
2022-10-26T14:35:39.098Z,92.50
2022-10-26T14:38:28.277Z,92.50
2022-10-26T14:40:59.893Z,92.60
2022-10-26T14:43:31.107Z,92.60
2022-10-26T14:46:01.161Z,92.70
2022-10-26T14:48:37.996Z,92.80
2022-10-26T14:51:20.570Z,92.80
2022-10-26T14:53:55.551Z,92.80
2022-10-26T14:56:44.989Z,92.90
2022-10-26T14:59:35.321Z,93.00
2022-10-26T15:02:22.870Z,93.10
2022-10-26T15:05:05.053Z,93.10
2022-10-26T15:07:40.231Z,93.20
2022-10-26T15:10:49.296Z,93.20
2022-10-26T15:13:35.060Z,93.20
2022-10-26T15:16:18.819Z,93.30
2022-10-26T15:18:52.994Z,93.30
2022-10-26T15:21:41.773Z,93.40
2022-10-26T15:24:39.261Z,93.40
2022-10-26T15:27:16.924Z,93.40
2022-10-26T15:29:49.004Z,93.60
2022-10-26T15:32:38.062Z,93.50
2022-10-26T15:35:32.626Z,93.60
2022-10-26T15:38:02.631Z,93.60
2022-10-26T15:40:34.030Z,93.70
2022-10-26T15:43:03.852Z,93.60
2022-10-26T15:45:49.644Z,93.70
2022-10-26T15:48:31.006Z,93.60
2022-10-26T15:51:00.858Z,93.70
2022-10-26T15:53:30.438Z,93.70
2022-10-26T15:56:01.864Z,93.80
2022-10-26T15:58:33.959Z,93.90
2022-10-26T16:01:03.562Z,93.90
2022-10-26T16:03:33.215Z,94.00
2022-10-26T16:06:04.637Z,94.00
2022-10-26T16:08:34.293Z,94.00
2022-10-26T16:11:03.838Z,94.10
2022-10-26T16:13:34.262Z,94.10
2022-10-26T16:16:04.660Z,94.20
2022-10-26T16:18:34.436Z,94.20
2022-10-26T16:21:04.312Z,94.30
2022-10-26T16:23:34.296Z,94.40
2022-10-26T16:26:06.861Z,94.50
2022-10-26T16:28:36.959Z,94.60
2022-10-26T16:31:10.541Z,94.60
2022-10-26T16:33:40.382Z,94.70
2022-10-26T16:36:12.013Z,94.80
2022-10-26T16:38:42.129Z,94.80
2022-10-26T16:41:18.743Z,94.80
2022-10-26T16:43:48.910Z,94.90
2022-10-26T16:46:21.234Z,94.90
2022-10-26T16:48:53.926Z,95.00
2022-10-26T16:51:28.097Z,95.20
2022-10-26T16:53:59.171Z,95.50
2022-10-26T16:56:31.692Z,95.60
2022-10-26T16:59:01.581Z,95.70
2022-10-26T17:01:31.751Z,95.80
2022-10-26T17:06:33.118Z,96.00
2022-10-26T17:09:03.177Z,96.00
2022-10-26T17:11:33.039Z,96.00
2022-10-26T17:14:03.857Z,96.00
2022-10-26T17:16:33.739Z,96.00
2022-10-26T17:19:04.050Z,96.00
2022-10-26T17:21:36.820Z,96.00
2022-10-26T17:24:08.405Z,96.00
2022-10-26T17:26:38.539Z,96.10
2022-10-26T17:29:11.296Z,96.10
2022-10-26T17:31:41.207Z,96.10
2022-10-26T17:34:11.073Z,96.10
2022-10-26T17:36:40.913Z,96.20
2022-10-26T17:39:11.410Z,96.20
2022-10-26T17:41:41.284Z,96.20
2022-10-26T17:44:11.321Z,96.20
2022-10-26T17:46:41.192Z,96.30
2022-10-26T17:49:11.053Z,96.30
2022-10-26T17:51:40.915Z,96.40
2022-10-26T17:54:10.911Z,96.30
2022-10-26T17:56:40.998Z,96.40
2022-10-26T17:59:14.446Z,96.40
2022-10-26T18:01:45.028Z,96.40
2022-10-26T18:04:14.900Z,96.50
2022-10-26T18:06:44.808Z,96.50
2022-10-26T18:09:14.636Z,96.50
2022-10-26T18:11:44.555Z,96.60
2022-10-26T18:14:15.474Z,96.70
2022-10-26T18:16:45.936Z,96.60
2022-10-26T18:19:15.877Z,96.60
2022-10-26T18:21:46.196Z,96.60
2022-10-26T18:24:16.091Z,96.60
2022-10-26T18:26:46.384Z,96.70
2022-10-26T18:29:16.209Z,96.70
2022-10-26T18:31:47.753Z,96.70
2022-10-26T18:34:17.587Z,96.80
2022-10-26T18:36:47.446Z,96.80
2022-10-26T18:39:17.313Z,96.80
2022-10-26T18:41:47.381Z,96.80
2022-10-26T18:44:17.314Z,96.80
2022-10-26T18:46:49.453Z,96.80
2022-10-26T18:49:22.049Z,96.90
2022-10-26T18:51:52.548Z,96.90
2022-10-26T18:54:22.532Z,97.00
2022-10-26T18:56:52.413Z,97.30
2022-10-26T18:59:22.251Z,97.00
2022-10-26T19:01:52.311Z,97.00
2022-10-26T19:04:22.264Z,97.10
2022-10-26T19:06:52.493Z,97.10
2022-10-26T19:09:22.494Z,97.10
2022-10-26T19:11:52.389Z,97.20
2022-10-26T19:14:22.568Z,97.20
2022-10-26T19:16:55.530Z,97.20
2022-10-26T19:19:26.925Z,97.30
2022-10-26T19:21:56.432Z,97.30
2022-10-26T19:24:26.236Z,97.40
2022-10-26T19:26:56.142Z,97.40
2022-10-26T19:29:25.610Z,97.40
2022-10-26T19:31:55.256Z,97.40
2022-10-26T19:34:24.912Z,97.40
2022-10-26T19:36:54.620Z,97.50
2022-10-26T19:39:24.858Z,97.40
2022-10-26T19:41:54.342Z,97.50
2022-10-26T19:44:25.478Z,97.50
2022-10-26T19:46:55.620Z,97.50
2022-10-26T19:49:25.461Z,97.50
2022-10-26T19:51:55.526Z,97.60
2022-10-26T19:54:25.517Z,97.50
2022-10-26T19:56:55.357Z,97.60
2022-10-26T19:59:25.276Z,97.60
2022-10-26T20:01:54.888Z,97.60
2022-10-26T20:04:24.562Z,97.60
2022-10-26T20:06:54.073Z,97.60
2022-10-26T20:09:23.572Z,97.60
2022-10-26T20:11:53.059Z,97.60
2022-10-26T20:14:22.658Z,97.70
2022-10-26T20:16:54.228Z,97.70
2022-10-26T20:19:24.115Z,97.70
2022-10-26T20:21:54.133Z,97.70
2022-10-26T20:24:23.970Z,97.80
2022-10-26T20:26:53.829Z,97.80
2022-10-26T20:29:23.938Z,97.90
2022-10-26T20:31:56.118Z,97.90
2022-10-26T20:34:26.256Z,98.00
2022-10-26T20:36:56.130Z,98.00
2022-10-26T20:39:26.299Z,98.00
2022-10-26T20:41:56.424Z,98.00
2022-10-26T20:44:32.659Z,98.00
2022-10-26T20:47:02.461Z,98.10
2022-10-26T20:49:32.359Z,98.20
2022-10-26T20:52:26.779Z,98.30
2022-10-26T20:55:08.550Z,98.40
2022-10-26T20:57:38.270Z,98.50
2022-10-26T21:00:10.938Z,98.40
2022-10-26T21:02:40.559Z,98.50
2022-10-26T21:05:10.239Z,98.60
2022-10-26T21:07:39.733Z,98.60
2022-10-26T21:10:09.657Z,98.70
2022-10-26T21:12:39.180Z,98.80
2022-10-26T21:15:09.336Z,98.80
2022-10-26T21:17:39.189Z,98.80
2022-10-26T21:20:09.525Z,98.80
2022-10-26T21:22:39.462Z,98.90
2022-10-26T21:25:09.984Z,98.90
2022-10-26T21:27:40.188Z,98.90
2022-10-26T21:30:10.879Z,98.90
2022-10-26T21:32:40.777Z,98.90
2022-10-26T21:35:10.891Z,98.90
2022-10-26T21:37:40.737Z,98.90
2022-10-26T21:40:11.414Z,98.90
2022-10-26T21:42:41.298Z,98.90
2022-10-26T21:45:11.492Z,98.90
2022-10-26T21:47:41.344Z,98.90
2022-10-26T21:50:11.511Z,98.90
2022-10-26T21:52:41.354Z,98.90
2022-10-26T21:55:11.714Z,98.90
2022-10-26T21:57:41.929Z,98.90
2022-10-26T22:00:12.421Z,99.00
2022-10-26T22:02:42.296Z,99.30
2022-10-26T22:05:12.237Z,99.00
2022-10-26T22:07:42.045Z,99.10
2022-10-26T22:10:12.052Z,99.10
2022-10-26T22:12:41.885Z,99.10
2022-10-26T22:15:12.098Z,99.20
2022-10-26T22:17:42.818Z,99.10
2022-10-26T22:20:14.226Z,99.20
2022-10-26T22:22:44.091Z,99.20
2022-10-26T22:25:13.974Z,99.20
2022-10-26T22:27:44.172Z,99.20
2022-10-26T22:30:14.492Z,99.20
2022-10-26T22:32:44.324Z,99.20
2022-10-26T22:35:30.074Z,99.30
2022-10-26T22:38:00.305Z,99.30
2022-10-26T22:40:30.157Z,99.30
2022-10-26T22:43:00.054Z,99.40
2022-10-26T22:45:29.879Z,99.40
2022-10-26T22:47:59.538Z,99.40
2022-10-26T22:50:29.173Z,99.40
2022-10-26T22:52:58.643Z,99.40
2022-10-26T22:55:28.241Z,99.40
2022-10-26T22:57:57.872Z,99.40
2022-10-26T23:00:27.345Z,99.50
2022-10-26T23:02:56.822Z,99.50
2022-10-26T23:05:26.453Z,99.50
2022-10-26T23:07:55.977Z,99.50
2022-10-26T23:10:25.704Z,99.50
2022-10-26T23:12:56.777Z,99.50
2022-10-26T23:15:27.592Z,99.50
2022-10-26T23:17:57.425Z,99.50
2022-10-26T23:20:27.331Z,99.60
2022-10-26T23:22:57.162Z,99.60
2022-10-26T23:25:27.214Z,99.60
2022-10-26T23:27:57.545Z,99.60
2022-10-26T23:30:27.407Z,99.70
2022-10-26T23:32:58.181Z,99.70
2022-10-26T23:35:28.127Z,99.70
2022-10-26T23:38:02.183Z,99.70
2022-10-26T23:40:32.002Z,99.70
2022-10-26T23:43:01.894Z,99.80
2022-10-26T23:45:31.804Z,99.80
2022-10-26T23:48:01.633Z,99.80
2022-10-26T23:50:31.585Z,99.90
2022-10-26T23:53:01.347Z,99.90
2022-10-26T23:55:31.236Z,99.90
2022-10-26T23:58:01.101Z,99.90
